Terminal Aerodrome Forecast
Issued by NWS Topeka, KS

Home | Current Version | Previous Version | Text Only | Print | Product List | Glossary Off
Versions: 1 2 3 4 5 6 7 8 9 10 11 12 13 14 15 16 17 18

000
FTUS43 KTOP 010100 AAA
TAFTOP
TAF AMD
KTOP 010123Z 0101/0124 14009KT P6SM BKN100
     FM010400 16009KT P6SM VCTS BKN080CB
     FM010900 18006KT 2SM TSRA BR SCT010 OVC040CB
     FM011400 18007KT 6SM SHRA VCTS SCT015 OVC040CB
     FM011700 18009KT P6SM SCT030 BKN050
     FM012200 17010KT P6SM VCSH SCT025 BKN040=

USA.gov is the U.S. government's official web portal to all federal, state and local government web resources and services.